Last Sunset

The eagle has landed !

New Brunswick departure

New Brunswick departure — traveling to Norfolk, Virginia from YFC Fredericton International Airport.

Fredericton NB

Tomorrow, Dec 20: CYYT-KORF-KAAF. Should be in 1800 lcl. Ready to wrap this up.

Last night at the Snooty Fox: Fredericton NB.

6pm TOMORROW !

N140BV
Expected to depart in 6 hours 47 minutes

Hanging out in New Brunswick

Hanging out in New Brunswick; finally made it out of Newfoundland but was only able to get as far south as Fredericton, New Brunswick. Now waiting for icing conditions over Maine to move out, could be a couple of days. Many thanks to Capital Air for making room in their hangar for me.

St. John’s Newfoundland Report

St John’s, Newfoundland report….see you next spring.
CYYT 161700Z 05018KT 1/4SM R11/2200FT/N R16/2400FT/N +SN VV004 M01/M01 A2931 RMK SN8 /SO4/ PRESFR SLP933
 — in St. John’s, Newfoundland and Labrador.

© Copyright 2022 - Forgotten Coast Flyers